Disclaimer

Please do not use the information listed here in-flight or in-navigation, as they are not provided to us by the airports but are provided by volunteers, so they might be outdated.

Search


Regions


Airport information page

Radio informations:
OUAGA TWR - 118.1 MHz
OUAGA APP - 118.1 MHz
AG VOICE OUAGA R - 120.3 MHz

Airport informations:
Latitude: 12° 21' 11.50" N
Longitude: 001° 30' 44.70" W
Elevation: 1037 feet - 316 meters
Operating hours: 24 hour operations
Operating agency: Military-civil joint use airport
Timezone: UTC 0
Fuel: Jet A1+, Jet A1 with icing inhibitor.

100/130 MIL Spec, low lead, aviation gasoline (BLUE)

Runway information:
04R/22L - 6269 x 98 feet< - >1911 x 30 meters
04L/22R - 9934 x 148 feet< - >3028 x 45 meters

Recent METARs:
DFFD 131300Z 15008KT CAVOK 37/09 Q1009 NOSIG
DFFD 131400Z 14006KT CAVOK 36/11 Q1009 NOSIG
DFFD 131400Z 14006KT CAVOK 36/11 Q1009 NOSIG

Airport on the map: